sensor_id;sensor_type;location;lat;lon;timestamp;P1;durP1;ratioP1;P2;durP2;ratioP2
17814;SDS011;9031;50.974;11.330;2024-02-15T00:01:38;0.60;;;0.60;;
17814;SDS011;9031;50.974;11.330;2024-02-15T00:04:04;0.53;;;0.47;;
17814;SDS011;9031;50.974;11.330;2024-02-15T00:06:30;1.03;;;0.50;;
17814;SDS011;9031;50.974;11.330;2024-02-15T00:08:56;0.60;;;0.60;;
17814;SDS011;9031;50.974;11.330;2024-02-15T00:11:21;0.40;;;0.40;;
17814;SDS011;9031;50.974;11.330;2024-02-15T00:13:47;0.70;;;0.50;;
17814;SDS011;9031;50.974;11.330;2024-02-15T00:16:13;1.27;;;0.50;;
17814;SDS011;9031;50.974;11.330;2024-02-15T00:18:39;0.43;;;0.43;;
17814;SDS011;9031;50.974;11.330;2024-02-15T00:21:05;0.60;;;0.60;;
17814;SDS011;9031;50.974;11.330;2024-02-15T00:23:30;0.40;;;0.40;;
17814;SDS011;9031;50.974;11.330;2024-02-15T00:25:57;0.70;;;0.50;;
17814;SDS011;9031;50.974;11.330;2024-02-15T00:28:23;1.60;;;0.50;;
17814;SDS011;9031;50.974;11.330;2024-02-15T00:30:49;0.50;;;0.50;;
17814;SDS011;9031;50.974;11.330;2024-02-15T00:33:14;0.50;;;0.50;;
17814;SDS011;9031;50.974;11.330;2024-02-15T00:35:40;0.47;;;0.47;;
17814;SDS011;9031;50.974;11.330;2024-02-15T00:38:06;0.47;;;0.47;;
17814;SDS011;9031;50.974;11.330;2024-02-15T00:40:32;0.57;;;0.57;;
17814;SDS011;9031;50.974;11.330;2024-02-15T00:42:57;0.50;;;0.50;;
17814;SDS011;9031;50.974;11.330;2024-02-15T00:45:23;0.60;;;0.60;;
17814;SDS011;9031;50.974;11.330;2024-02-15T00:47:49;0.50;;;0.50;;
17814;SDS011;9031;50.974;11.330;2024-02-15T00:50:14;1.17;;;0.67;;
17814;SDS011;9031;50.974;11.330;2024-02-15T00:52:40;0.80;;;0.80;;
17814;SDS011;9031;50.974;11.330;2024-02-15T00:55:05;0.60;;;0.60;;
17814;SDS011;9031;50.974;11.330;2024-02-15T00:57:31;0.67;;;0.60;;
17814;SDS011;9031;50.974;11.330;2024-02-15T00:59:57;0.60;;;0.60;;
17814;SDS011;9031;50.974;11.330;2024-02-15T01:02:22;0.60;;;0.60;;
17814;SDS011;9031;50.974;11.330;2024-02-15T01:04:48;0.50;;;0.50;;
17814;SDS011;9031;50.974;11.330;2024-02-15T01:07:15;1.07;;;0.80;;
17814;SDS011;9031;50.974;11.330;2024-02-15T01:09:40;0.70;;;0.70;;
17814;SDS011;9031;50.974;11.330;2024-02-15T01:12:06;0.50;;;0.50;;
17814;SDS011;9031;50.974;11.330;2024-02-15T01:14:31;0.50;;;0.50;;
17814;SDS011;9031;50.974;11.330;2024-02-15T01:16:57;1.63;;;0.60;;
17814;SDS011;9031;50.974;11.330;2024-02-15T01:19:23;1.03;;;0.60;;
17814;SDS011;9031;50.974;11.330;2024-02-15T01:21:48;0.40;;;0.40;;
17814;SDS011;9031;50.974;11.330;2024-02-15T01:24:13;0.60;;;0.60;;
17814;SDS011;9031;50.974;11.330;2024-02-15T01:26:39;0.67;;;0.67;;
17814;SDS011;9031;50.974;11.330;2024-02-15T01:29:05;1.17;;;0.40;;
17814;SDS011;9031;50.974;11.330;2024-02-15T01:31:30;0.50;;;0.50;;
17814;SDS011;9031;50.974;11.330;2024-02-15T01:33:56;0.60;;;0.60;;
17814;SDS011;9031;50.974;11.330;2024-02-15T01:36:22;0.50;;;0.50;;
17814;SDS011;9031;50.974;11.330;2024-02-15T01:38:47;0.60;;;0.60;;
17814;SDS011;9031;50.974;11.330;2024-02-15T01:41:13;0.50;;;0.50;;
17814;SDS011;9031;50.974;11.330;2024-02-15T01:43:42;0.97;;;0.60;;
17814;SDS011;9031;50.974;11.330;2024-02-15T01:46:09;0.60;;;0.60;;
17814;SDS011;9031;50.974;11.330;2024-02-15T01:48:35;0.40;;;0.40;;
17814;SDS011;9031;50.974;11.330;2024-02-15T01:51:01;0.50;;;0.50;;
17814;SDS011;9031;50.974;11.330;2024-02-15T01:53:28;2.30;;;0.60;;
17814;SDS011;9031;50.974;11.330;2024-02-15T01:55:55;0.50;;;0.50;;
17814;SDS011;9031;50.974;11.330;2024-02-15T01:58:22;0.50;;;0.50;;
17814;SDS011;9031;50.974;11.330;2024-02-15T02:00:49;0.60;;;0.60;;
17814;SDS011;9031;50.974;11.330;2024-02-15T02:03:15;0.60;;;0.60;;
17814;SDS011;9031;50.974;11.330;2024-02-15T02:05:42;0.50;;;0.50;;
17814;SDS011;9031;50.974;11.330;2024-02-15T02:08:07;0.43;;;0.43;;
17814;SDS011;9031;50.974;11.330;2024-02-15T02:10:35;0.50;;;0.50;;
17814;SDS011;9031;50.974;11.330;2024-02-15T02:13:03;0.40;;;0.40;;
17814;SDS011;9031;50.974;11.330;2024-02-15T02:15:33;0.63;;;0.60;;
17814;SDS011;9031;50.974;11.330;2024-02-15T02:18:00;0.43;;;0.43;;
17814;SDS011;9031;50.974;11.330;2024-02-15T02:20:26;0.50;;;0.50;;
17814;SDS011;9031;50.974;11.330;2024-02-15T02:22:53;0.57;;;0.50;;
17814;SDS011;9031;50.974;11.330;2024-02-15T02:25:22;0.50;;;0.50;;
17814;SDS011;9031;50.974;11.330;2024-02-15T02:27:51;0.40;;;0.40;;
17814;SDS011;9031;50.974;11.330;2024-02-15T02:30:16;0.50;;;0.50;;
17814;SDS011;9031;50.974;11.330;2024-02-15T02:32:43;0.93;;;0.50;;
17814;SDS011;9031;50.974;11.330;2024-02-15T02:35:10;0.50;;;0.50;;
17814;SDS011;9031;50.974;11.330;2024-02-15T02:37:41;0.50;;;0.50;;
17814;SDS011;9031;50.974;11.330;2024-02-15T02:40:07;0.40;;;0.40;;
17814;SDS011;9031;50.974;11.330;2024-02-15T02:42:37;0.60;;;0.50;;
17814;SDS011;9031;50.974;11.330;2024-02-15T02:45:15;0.50;;;0.50;;
17814;SDS011;9031;50.974;11.330;2024-02-15T02:47:40;0.40;;;0.40;;
17814;SDS011;9031;50.974;11.330;2024-02-15T02:50:06;0.50;;;0.50;;
17814;SDS011;9031;50.974;11.330;2024-02-15T02:52:33;0.30;;;0.30;;
17814;SDS011;9031;50.974;11.330;2024-02-15T02:54:58;0.50;;;0.50;;
17814;SDS011;9031;50.974;11.330;2024-02-15T02:57:24;0.40;;;0.40;;
17814;SDS011;9031;50.974;11.330;2024-02-15T02:59:49;0.40;;;0.40;;
17814;SDS011;9031;50.974;11.330;2024-02-15T03:02:16;0.70;;;0.50;;
17814;SDS011;9031;50.974;11.330;2024-02-15T03:04:42;0.50;;;0.50;;
17814;SDS011;9031;50.974;11.330;2024-02-15T03:07:08;0.40;;;0.40;;
17814;SDS011;9031;50.974;11.330;2024-02-15T03:09:33;0.40;;;0.40;;
17814;SDS011;9031;50.974;11.330;2024-02-15T03:11:59;0.50;;;0.40;;
17814;SDS011;9031;50.974;11.330;2024-02-15T03:14:26;0.43;;;0.43;;
17814;SDS011;9031;50.974;11.330;2024-02-15T03:16:51;0.40;;;0.40;;
17814;SDS011;9031;50.974;11.330;2024-02-15T03:19:17;0.40;;;0.40;;
17814;SDS011;9031;50.974;11.330;2024-02-15T03:21:42;0.30;;;0.30;;
17814;SDS011;9031;50.974;11.330;2024-02-15T03:24:11;0.43;;;0.40;;
17814;SDS011;9031;50.974;11.330;2024-02-15T03:26:37;0.40;;;0.40;;
17814;SDS011;9031;50.974;11.330;2024-02-15T03:29:03;1.97;;;0.60;;
17814;SDS011;9031;50.974;11.330;2024-02-15T03:31:29;0.40;;;0.40;;
17814;SDS011;9031;50.974;11.330;2024-02-15T03:33:56;0.40;;;0.40;;
17814;SDS011;9031;50.974;11.330;2024-02-15T03:36:22;1.10;;;0.60;;
17814;SDS011;9031;50.974;11.330;2024-02-15T03:38:48;0.40;;;0.40;;
17814;SDS011;9031;50.974;11.330;2024-02-15T03:41:13;0.40;;;0.40;;
17814;SDS011;9031;50.974;11.330;2024-02-15T03:43:39;0.40;;;0.40;;
17814;SDS011;9031;50.974;11.330;2024-02-15T03:46:05;0.50;;;0.50;;
17814;SDS011;9031;50.974;11.330;2024-02-15T03:48:32;0.47;;;0.47;;
17814;SDS011;9031;50.974;11.330;2024-02-15T03:50:57;0.57;;;0.50;;
17814;SDS011;9031;50.974;11.330;2024-02-15T03:53:23;0.40;;;0.40;;
17814;SDS011;9031;50.974;11.330;2024-02-15T03:55:49;0.40;;;0.40;;
17814;SDS011;9031;50.974;11.330;2024-02-15T03:58:18;0.40;;;0.40;;
17814;SDS011;9031;50.974;11.330;2024-02-15T04:00:44;0.40;;;0.40;;
17814;SDS011;9031;50.974;11.330;2024-02-15T04:03:10;0.40;;;0.40;;
17814;SDS011;9031;50.974;11.330;2024-02-15T04:05:35;0.43;;;0.43;;
17814;SDS011;9031;50.974;11.330;2024-02-15T04:08:01;0.67;;;0.30;;
17814;SDS011;9031;50.974;11.330;2024-02-15T04:10:27;0.43;;;0.43;;
17814;SDS011;9031;50.974;11.330;2024-02-15T04:12:52;0.30;;;0.30;;
17814;SDS011;9031;50.974;11.330;2024-02-15T04:15:18;0.50;;;0.50;;
17814;SDS011;9031;50.974;11.330;2024-02-15T04:17:44;0.40;;;0.40;;
17814;SDS011;9031;50.974;11.330;2024-02-15T04:20:10;0.40;;;0.40;;
17814;SDS011;9031;50.974;11.330;2024-02-15T04:22:36;0.50;;;0.50;;
17814;SDS011;9031;50.974;11.330;2024-02-15T04:25:04;0.50;;;0.50;;
17814;SDS011;9031;50.974;11.330;2024-02-15T04:27:31;0.50;;;0.50;;
17814;SDS011;9031;50.974;11.330;2024-02-15T04:29:56;0.50;;;0.50;;
17814;SDS011;9031;50.974;11.330;2024-02-15T04:32:22;0.63;;;0.50;;
17814;SDS011;9031;50.974;11.330;2024-02-15T04:34:47;0.70;;;0.70;;
17814;SDS011;9031;50.974;11.330;2024-02-15T04:37:13;0.60;;;0.60;;
17814;SDS011;9031;50.974;11.330;2024-02-15T04:39:39;0.60;;;0.60;;
17814;SDS011;9031;50.974;11.330;2024-02-15T04:42:04;0.60;;;0.60;;
17814;SDS011;9031;50.974;11.330;2024-02-15T04:44:32;0.60;;;0.60;;
17814;SDS011;9031;50.974;11.330;2024-02-15T04:47:00;0.60;;;0.60;;
17814;SDS011;9031;50.974;11.330;2024-02-15T04:49:26;0.47;;;0.47;;
17814;SDS011;9031;50.974;11.330;2024-02-15T04:51:53;1.57;;;0.73;;
17814;SDS011;9031;50.974;11.330;2024-02-15T04:54:19;0.57;;;0.57;;
17814;SDS011;9031;50.974;11.330;2024-02-15T04:56:45;0.70;;;0.70;;
17814;SDS011;9031;50.974;11.330;2024-02-15T04:59:11;0.60;;;0.60;;
17814;SDS011;9031;50.974;11.330;2024-02-15T05:01:39;2.20;;;0.60;;
17814;SDS011;9031;50.974;11.330;2024-02-15T05:04:07;1.47;;;0.70;;
17814;SDS011;9031;50.974;11.330;2024-02-15T05:06:33;0.70;;;0.70;;
17814;SDS011;9031;50.974;11.330;2024-02-15T05:08:59;0.70;;;0.60;;
17814;SDS011;9031;50.974;11.330;2024-02-15T05:11:32;0.70;;;0.70;;
17814;SDS011;9031;50.974;11.330;2024-02-15T05:14:00;0.80;;;0.80;;
17814;SDS011;9031;50.974;11.330;2024-02-15T05:16:26;0.77;;;0.77;;
17814;SDS011;9031;50.974;11.330;2024-02-15T05:18:51;0.70;;;0.70;;
17814;SDS011;9031;50.974;11.330;2024-02-15T05:21:18;1.13;;;0.53;;
17814;SDS011;9031;50.974;11.330;2024-02-15T05:23:44;0.73;;;0.70;;
17814;SDS011;9031;50.974;11.330;2024-02-15T05:26:10;0.90;;;0.70;;
17814;SDS011;9031;50.974;11.330;2024-02-15T05:28:37;0.70;;;0.60;;
17814;SDS011;9031;50.974;11.330;2024-02-15T05:31:10;0.73;;;0.70;;
17814;SDS011;9031;50.974;11.330;2024-02-15T05:33:41;1.50;;;0.80;;
17814;SDS011;9031;50.974;11.330;2024-02-15T05:36:09;0.70;;;0.70;;
17814;SDS011;9031;50.974;11.330;2024-02-15T05:38:36;1.17;;;1.00;;
17814;SDS011;9031;50.974;11.330;2024-02-15T05:41:01;1.57;;;1.07;;
17814;SDS011;9031;50.974;11.330;2024-02-15T05:43:27;1.13;;;0.90;;
17814;SDS011;9031;50.974;11.330;2024-02-15T05:45:53;1.60;;;1.10;;
17814;SDS011;9031;50.974;11.330;2024-02-15T05:48:19;1.33;;;1.10;;
17814;SDS011;9031;50.974;11.330;2024-02-15T05:50:46;1.20;;;1.10;;
17814;SDS011;9031;50.974;11.330;2024-02-15T05:53:12;1.00;;;1.00;;
17814;SDS011;9031;50.974;11.330;2024-02-15T05:55:37;1.30;;;1.20;;
17814;SDS011;9031;50.974;11.330;2024-02-15T05:58:05;0.97;;;0.97;;
17814;SDS011;9031;50.974;11.330;2024-02-15T06:00:34;1.57;;;1.47;;
17814;SDS011;9031;50.974;11.330;2024-02-15T06:02:59;2.47;;;1.30;;
17814;SDS011;9031;50.974;11.330;2024-02-15T06:05:28;1.30;;;1.20;;
17814;SDS011;9031;50.974;11.330;2024-02-15T06:07:53;2.43;;;1.33;;
17814;SDS011;9031;50.974;11.330;2024-02-15T06:10:19;2.73;;;1.10;;
17814;SDS011;9031;50.974;11.330;2024-02-15T06:12:44;1.83;;;1.40;;
17814;SDS011;9031;50.974;11.330;2024-02-15T06:15:10;1.50;;;1.40;;
17814;SDS011;9031;50.974;11.330;2024-02-15T06:17:45;2.33;;;1.23;;
17814;SDS011;9031;50.974;11.330;2024-02-15T06:20:14;4.40;;;1.40;;
17814;SDS011;9031;50.974;11.330;2024-02-15T06:22:42;1.10;;;1.10;;
17814;SDS011;9031;50.974;11.330;2024-02-15T06:25:08;1.70;;;1.60;;
17814;SDS011;9031;50.974;11.330;2024-02-15T06:27:38;2.27;;;1.20;;
17814;SDS011;9031;50.974;11.330;2024-02-15T06:30:06;1.80;;;1.30;;
17814;SDS011;9031;50.974;11.330;2024-02-15T06:32:57;1.70;;;1.60;;
17814;SDS011;9031;50.974;11.330;2024-02-15T06:35:41;1.60;;;1.50;;
17814;SDS011;9031;50.974;11.330;2024-02-15T06:38:25;2.03;;;1.23;;
17814;SDS011;9031;50.974;11.330;2024-02-15T06:41:10;2.67;;;1.50;;
17814;SDS011;9031;50.974;11.330;2024-02-15T06:43:36;1.43;;;1.33;;
17814;SDS011;9031;50.974;11.330;2024-02-15T06:46:02;1.73;;;1.63;;
17814;SDS011;9031;50.974;11.330;2024-02-15T06:48:30;1.50;;;1.40;;
17814;SDS011;9031;50.974;11.330;2024-02-15T06:50:56;3.20;;;1.27;;
17814;SDS011;9031;50.974;11.330;2024-02-15T06:53:22;1.33;;;1.13;;
17814;SDS011;9031;50.974;11.330;2024-02-15T06:55:47;3.10;;;1.20;;
17814;SDS011;9031;50.974;11.330;2024-02-15T06:58:14;1.37;;;1.27;;
17814;SDS011;9031;50.974;11.330;2024-02-15T07:00:43;2.07;;;1.40;;
17814;SDS011;9031;50.974;11.330;2024-02-15T07:03:09;2.03;;;1.50;;
17814;SDS011;9031;50.974;11.330;2024-02-15T07:05:35;1.17;;;1.07;;
17814;SDS011;9031;50.974;11.330;2024-02-15T07:08:03;2.13;;;1.40;;
17814;SDS011;9031;50.974;11.330;2024-02-15T07:10:30;2.00;;;1.80;;
17814;SDS011;9031;50.974;11.330;2024-02-15T07:12:56;3.60;;;1.70;;
17814;SDS011;9031;50.974;11.330;2024-02-15T07:15:22;2.33;;;1.33;;
17814;SDS011;9031;50.974;11.330;2024-02-15T07:17:47;1.87;;;1.50;;
17814;SDS011;9031;50.974;11.330;2024-02-15T07:20:13;1.60;;;1.50;;
17814;SDS011;9031;50.974;11.330;2024-02-15T07:22:42;1.63;;;1.50;;
17814;SDS011;9031;50.974;11.330;2024-02-15T07:25:08;1.97;;;1.40;;
17814;SDS011;9031;50.974;11.330;2024-02-15T07:27:35;2.00;;;1.30;;
17814;SDS011;9031;50.974;11.330;2024-02-15T07:30:00;1.37;;;1.20;;
17814;SDS011;9031;50.974;11.330;2024-02-15T07:32:27;1.37;;;1.20;;
17814;SDS011;9031;50.974;11.330;2024-02-15T07:34:52;3.20;;;1.30;;
17814;SDS011;9031;50.974;11.330;2024-02-15T07:37:18;1.30;;;1.20;;
17814;SDS011;9031;50.974;11.330;2024-02-15T07:39:43;2.30;;;1.43;;
17814;SDS011;9031;50.974;11.330;2024-02-15T07:42:09;1.33;;;1.20;;
17814;SDS011;9031;50.974;11.330;2024-02-15T07:44:34;1.30;;;1.20;;
17814;SDS011;9031;50.974;11.330;2024-02-15T07:47:01;3.33;;;1.50;;
17814;SDS011;9031;50.974;11.330;2024-02-15T07:49:27;1.27;;;1.17;;
17814;SDS011;9031;50.974;11.330;2024-02-15T07:51:53;2.30;;;1.40;;
17814;SDS011;9031;50.974;11.330;2024-02-15T07:54:19;2.50;;;1.30;;
17814;SDS011;9031;50.974;11.330;2024-02-15T07:56:48;1.30;;;1.20;;
17814;SDS011;9031;50.974;11.330;2024-02-15T07:59:14;1.93;;;1.13;;
17814;SDS011;9031;50.974;11.330;2024-02-15T08:01:43;1.17;;;1.07;;
17814;SDS011;9031;50.974;11.330;2024-02-15T08:04:10;2.00;;;1.17;;
17814;SDS011;9031;50.974;11.330;2024-02-15T08:06:36;2.87;;;1.47;;
17814;SDS011;9031;50.974;11.330;2024-02-15T08:09:03;2.00;;;1.20;;
17814;SDS011;9031;50.974;11.330;2024-02-15T08:11:31;1.63;;;1.30;;
17814;SDS011;9031;50.974;11.330;2024-02-15T08:13:57;1.77;;;1.13;;
17814;SDS011;9031;50.974;11.330;2024-02-15T08:16:24;1.17;;;1.07;;
17814;SDS011;9031;50.974;11.330;2024-02-15T08:18:53;1.53;;;1.23;;
17814;SDS011;9031;50.974;11.330;2024-02-15T08:21:53;1.80;;;1.10;;
17814;SDS011;9031;50.974;11.330;2024-02-15T08:24:15;1.77;;;1.10;;
17814;SDS011;9031;50.974;11.330;2024-02-15T08:26:41;1.93;;;1.30;;
17814;SDS011;9031;50.974;11.330;2024-02-15T08:29:07;1.20;;;1.00;;
17814;SDS011;9031;50.974;11.330;2024-02-15T08:31:32;1.50;;;1.30;;
17814;SDS011;9031;50.974;11.330;2024-02-15T08:34:02;1.60;;;1.50;;
17814;SDS011;9031;50.974;11.330;2024-02-15T08:36:30;1.20;;;1.20;;
17814;SDS011;9031;50.974;11.330;2024-02-15T08:38:56;1.30;;;1.20;;
17814;SDS011;9031;50.974;11.330;2024-02-15T08:41:21;1.63;;;1.37;;
17814;SDS011;9031;50.974;11.330;2024-02-15T08:43:51;1.00;;;1.00;;
17814;SDS011;9031;50.974;11.330;2024-02-15T08:46:17;2.20;;;1.33;;
17814;SDS011;9031;50.974;11.330;2024-02-15T08:48:44;1.90;;;1.20;;
17814;SDS011;9031;50.974;11.330;2024-02-15T08:51:11;1.50;;;1.40;;
17814;SDS011;9031;50.974;11.330;2024-02-15T08:53:37;1.80;;;1.37;;
17814;SDS011;9031;50.974;11.330;2024-02-15T08:56:03;1.60;;;1.40;;
17814;SDS011;9031;50.974;11.330;2024-02-15T08:58:29;1.40;;;1.30;;
17814;SDS011;9031;50.974;11.330;2024-02-15T09:00:55;1.80;;;1.70;;
17814;SDS011;9031;50.974;11.330;2024-02-15T09:03:21;3.00;;;1.33;;
17814;SDS011;9031;50.974;11.330;2024-02-15T09:05:47;1.43;;;1.33;;
17814;SDS011;9031;50.974;11.330;2024-02-15T09:08:13;2.63;;;1.90;;
17814;SDS011;9031;50.974;11.330;2024-02-15T09:10:40;1.50;;;1.40;;
17814;SDS011;9031;50.974;11.330;2024-02-15T09:13:06;2.57;;;1.57;;
17814;SDS011;9031;50.974;11.330;2024-02-15T09:15:31;1.50;;;1.40;;
17814;SDS011;9031;50.974;11.330;2024-02-15T09:17:57;2.03;;;1.30;;
17814;SDS011;9031;50.974;11.330;2024-02-15T09:20:23;1.47;;;1.10;;
17814;SDS011;9031;50.974;11.330;2024-02-15T09:22:53;2.33;;;1.10;;
17814;SDS011;9031;50.974;11.330;2024-02-15T09:25:19;2.00;;;1.20;;
17814;SDS011;9031;50.974;11.330;2024-02-15T09:27:48;1.63;;;1.20;;
17814;SDS011;9031;50.974;11.330;2024-02-15T09:30:14;1.47;;;1.37;;
17814;SDS011;9031;50.974;11.330;2024-02-15T09:32:40;2.83;;;1.20;;
17814;SDS011;9031;50.974;11.330;2024-02-15T09:35:06;1.40;;;1.30;;
17814;SDS011;9031;50.974;11.330;2024-02-15T09:37:33;5.27;;;1.40;;
17814;SDS011;9031;50.974;11.330;2024-02-15T09:40:00;1.30;;;1.20;;
17814;SDS011;9031;50.974;11.330;2024-02-15T09:42:31;1.50;;;1.13;;
17814;SDS011;9031;50.974;11.330;2024-02-15T09:44:59;1.97;;;1.50;;
17814;SDS011;9031;50.974;11.330;2024-02-15T09:47:26;1.60;;;1.20;;
17814;SDS011;9031;50.974;11.330;2024-02-15T09:49:57;1.73;;;1.10;;
17814;SDS011;9031;50.974;11.330;2024-02-15T09:52:24;1.60;;;1.50;;
17814;SDS011;9031;50.974;11.330;2024-02-15T09:54:49;1.37;;;1.27;;
17814;SDS011;9031;50.974;11.330;2024-02-15T09:57:17;1.70;;;1.40;;
17814;SDS011;9031;50.974;11.330;2024-02-15T09:59:43;2.03;;;1.10;;
17814;SDS011;9031;50.974;11.330;2024-02-15T10:02:09;2.07;;;1.20;;
17814;SDS011;9031;50.974;11.330;2024-02-15T10:04:39;1.07;;;1.07;;
17814;SDS011;9031;50.974;11.330;2024-02-15T10:07:05;2.50;;;1.07;;
17814;SDS011;9031;50.974;11.330;2024-02-15T10:09:33;1.33;;;1.23;;
17814;SDS011;9031;50.974;11.330;2024-02-15T10:12:01;1.00;;;1.00;;
17814;SDS011;9031;50.974;11.330;2024-02-15T10:14:28;1.40;;;1.00;;
17814;SDS011;9031;50.974;11.330;2024-02-15T10:16:54;1.90;;;1.20;;
17814;SDS011;9031;50.974;11.330;2024-02-15T10:19:21;0.90;;;0.90;;
17814;SDS011;9031;50.974;11.330;2024-02-15T10:21:53;1.90;;;1.00;;
17814;SDS011;9031;50.974;11.330;2024-02-15T10:24:22;1.60;;;1.50;;
17814;SDS011;9031;50.974;11.330;2024-02-15T10:26:59;1.20;;;1.10;;
17814;SDS011;9031;50.974;11.330;2024-02-15T10:29:29;1.00;;;1.00;;
17814;SDS011;9031;50.974;11.330;2024-02-15T10:31:59;1.13;;;1.10;;
17814;SDS011;9031;50.974;11.330;2024-02-15T10:34:25;1.00;;;0.90;;
17814;SDS011;9031;50.974;11.330;2024-02-15T10:36:54;1.40;;;1.10;;
17814;SDS011;9031;50.974;11.330;2024-02-15T10:39:22;1.33;;;1.00;;
17814;SDS011;9031;50.974;11.330;2024-02-15T10:41:52;1.17;;;1.07;;
17814;SDS011;9031;50.974;11.330;2024-02-15T10:44:23;1.90;;;1.20;;
17814;SDS011;9031;50.974;11.330;2024-02-15T10:46:49;1.43;;;1.20;;
17814;SDS011;9031;50.974;11.330;2024-02-15T10:49:23;0.90;;;0.90;;
17814;SDS011;9031;50.974;11.330;2024-02-15T10:51:55;1.20;;;1.10;;
17814;SDS011;9031;50.974;11.330;2024-02-15T10:57:12;1.50;;;1.40;;
17814;SDS011;9031;50.974;11.330;2024-02-15T10:59:41;1.67;;;1.30;;
17814;SDS011;9031;50.974;11.330;2024-02-15T11:05:03;1.40;;;1.30;;
17814;SDS011;9031;50.974;11.330;2024-02-15T11:07:34;1.73;;;1.40;;
17814;SDS011;9031;50.974;11.330;2024-02-15T11:10:00;1.63;;;1.10;;
17814;SDS011;9031;50.974;11.330;2024-02-15T11:12:27;1.57;;;1.20;;
17814;SDS011;9031;50.974;11.330;2024-02-15T11:14:54;1.60;;;1.50;;
17814;SDS011;9031;50.974;11.330;2024-02-15T11:20:08;1.67;;;0.77;;
17814;SDS011;9031;50.974;11.330;2024-02-15T11:22:36;1.20;;;0.70;;
17814;SDS011;9031;50.974;11.330;2024-02-15T11:25:03;2.70;;;0.90;;
17814;SDS011;9031;50.974;11.330;2024-02-15T11:27:37;1.73;;;0.60;;
17814;SDS011;9031;50.974;11.330;2024-02-15T11:30:04;0.37;;;0.37;;
17814;SDS011;9031;50.974;11.330;2024-02-15T11:32:44;0.83;;;0.40;;
17814;SDS011;9031;50.974;11.330;2024-02-15T11:35:20;1.20;;;0.50;;
17814;SDS011;9031;50.974;11.330;2024-02-15T11:37:50;0.77;;;0.30;;
17814;SDS011;9031;50.974;11.330;2024-02-15T11:43:07;1.80;;;0.53;;
17814;SDS011;9031;50.974;11.330;2024-02-15T11:45:36;0.30;;;0.30;;
17814;SDS011;9031;50.974;11.330;2024-02-15T11:48:08;0.33;;;0.30;;
17814;SDS011;9031;50.974;11.330;2024-02-15T11:50:38;0.33;;;0.33;;
17814;SDS011;9031;50.974;11.330;2024-02-15T11:53:05;0.67;;;0.43;;
17814;SDS011;9031;50.974;11.330;2024-02-15T11:55:34;1.93;;;0.50;;
17814;SDS011;9031;50.974;11.330;2024-02-15T11:58:04;0.30;;;0.30;;
17814;SDS011;9031;50.974;11.330;2024-02-15T12:00:30;0.40;;;0.20;;
17814;SDS011;9031;50.974;11.330;2024-02-15T12:03:15;0.80;;;0.30;;
17814;SDS011;9031;50.974;11.330;2024-02-15T12:06:00;0.63;;;0.37;;
17814;SDS011;9031;50.974;11.330;2024-02-15T12:08:45;0.40;;;0.40;;
17814;SDS011;9031;50.974;11.330;2024-02-15T12:11:30;0.80;;;0.50;;
17814;SDS011;9031;50.974;11.330;2024-02-15T12:14:15;0.30;;;0.30;;
17814;SDS011;9031;50.974;11.330;2024-02-15T12:17:03;0.30;;;0.30;;
17814;SDS011;9031;50.974;11.330;2024-02-15T12:19:49;0.67;;;0.40;;
17814;SDS011;9031;50.974;11.330;2024-02-15T12:22:28;0.40;;;0.40;;
17814;SDS011;9031;50.974;11.330;2024-02-15T12:25:15;0.30;;;0.30;;
17814;SDS011;9031;50.974;11.330;2024-02-15T12:27:44;0.70;;;0.40;;
17814;SDS011;9031;50.974;11.330;2024-02-15T12:30:13;0.30;;;0.30;;
17814;SDS011;9031;50.974;11.330;2024-02-15T12:32:40;2.07;;;0.40;;
17814;SDS011;9031;50.974;11.330;2024-02-15T12:35:09;0.77;;;0.50;;
17814;SDS011;9031;50.974;11.330;2024-02-15T12:37:42;0.40;;;0.30;;
17814;SDS011;9031;50.974;11.330;2024-02-15T12:40:30;0.77;;;0.43;;
17814;SDS011;9031;50.974;11.330;2024-02-15T12:42:57;1.27;;;0.47;;
17814;SDS011;9031;50.974;11.330;2024-02-15T12:45:24;0.60;;;0.40;;
17814;SDS011;9031;50.974;11.330;2024-02-15T12:47:54;1.17;;;0.47;;
17814;SDS011;9031;50.974;11.330;2024-02-15T12:50:21;0.60;;;0.60;;
17814;SDS011;9031;50.974;11.330;2024-02-15T12:52:48;0.87;;;0.70;;
17814;SDS011;9031;50.974;11.330;2024-02-15T12:55:18;0.53;;;0.40;;
17814;SDS011;9031;50.974;11.330;2024-02-15T12:57:46;0.63;;;0.50;;
17814;SDS011;9031;50.974;11.330;2024-02-15T13:00:15;1.10;;;0.50;;
17814;SDS011;9031;50.974;11.330;2024-02-15T13:02:44;0.80;;;0.60;;
17814;SDS011;9031;50.974;11.330;2024-02-15T13:05:10;1.23;;;0.70;;
17814;SDS011;9031;50.974;11.330;2024-02-15T13:07:36;1.03;;;0.60;;
17814;SDS011;9031;50.974;11.330;2024-02-15T13:10:05;2.30;;;0.60;;
17814;SDS011;9031;50.974;11.330;2024-02-15T13:12:34;1.00;;;0.60;;
17814;SDS011;9031;50.974;11.330;2024-02-15T13:15:04;0.57;;;0.57;;
17814;SDS011;9031;50.974;11.330;2024-02-15T13:17:31;0.93;;;0.50;;
17814;SDS011;9031;50.974;11.330;2024-02-15T13:19:58;0.77;;;0.67;;
17814;SDS011;9031;50.974;11.330;2024-02-15T13:22:35;0.50;;;0.50;;
17814;SDS011;9031;50.974;11.330;2024-02-15T13:25:01;1.00;;;0.50;;
17814;SDS011;9031;50.974;11.330;2024-02-15T13:27:28;2.10;;;0.63;;
17814;SDS011;9031;50.974;11.330;2024-02-15T13:29:54;0.53;;;0.50;;
17814;SDS011;9031;50.974;11.330;2024-02-15T13:32:19;1.17;;;0.60;;
17814;SDS011;9031;50.974;11.330;2024-02-15T13:34:46;1.07;;;0.60;;
17814;SDS011;9031;50.974;11.330;2024-02-15T13:37:16;0.70;;;0.63;;
17814;SDS011;9031;50.974;11.330;2024-02-15T13:39:46;0.60;;;0.50;;
17814;SDS011;9031;50.974;11.330;2024-02-15T13:42:12;0.50;;;0.50;;
17814;SDS011;9031;50.974;11.330;2024-02-15T13:44:38;0.83;;;0.60;;
17814;SDS011;9031;50.974;11.330;2024-02-15T13:47:03;1.30;;;0.57;;
17814;SDS011;9031;50.974;11.330;2024-02-15T13:49:30;1.77;;;0.80;;
17814;SDS011;9031;50.974;11.330;2024-02-15T13:51:56;1.40;;;0.77;;
17814;SDS011;9031;50.974;11.330;2024-02-15T13:54:28;3.50;;;0.67;;
17814;SDS011;9031;50.974;11.330;2024-02-15T13:56:55;0.97;;;0.63;;
17814;SDS011;9031;50.974;11.330;2024-02-15T13:59:21;1.83;;;0.60;;
17814;SDS011;9031;50.974;11.330;2024-02-15T14:01:48;1.10;;;0.77;;
17814;SDS011;9031;50.974;11.330;2024-02-15T14:04:14;0.73;;;0.63;;
17814;SDS011;9031;50.974;11.330;2024-02-15T14:06:41;0.53;;;0.50;;
17814;SDS011;9031;50.974;11.330;2024-02-15T14:09:09;1.20;;;0.60;;
17814;SDS011;9031;50.974;11.330;2024-02-15T14:11:38;1.17;;;0.73;;
17814;SDS011;9031;50.974;11.330;2024-02-15T14:14:04;0.53;;;0.50;;
17814;SDS011;9031;50.974;11.330;2024-02-15T14:16:30;0.97;;;0.50;;
17814;SDS011;9031;50.974;11.330;2024-02-15T14:18:56;1.23;;;0.70;;
17814;SDS011;9031;50.974;11.330;2024-02-15T14:21:21;1.53;;;0.60;;
17814;SDS011;9031;50.974;11.330;2024-02-15T14:23:47;1.80;;;0.50;;
17814;SDS011;9031;50.974;11.330;2024-02-15T14:26:13;0.93;;;0.50;;
17814;SDS011;9031;50.974;11.330;2024-02-15T14:28:39;1.00;;;0.70;;
17814;SDS011;9031;50.974;11.330;2024-02-15T14:31:06;0.97;;;0.70;;
17814;SDS011;9031;50.974;11.330;2024-02-15T14:33:50;0.80;;;0.50;;
17814;SDS011;9031;50.974;11.330;2024-02-15T14:36:16;1.57;;;0.60;;
17814;SDS011;9031;50.974;11.330;2024-02-15T14:38:42;1.00;;;0.70;;
17814;SDS011;9031;50.974;11.330;2024-02-15T14:41:09;0.83;;;0.70;;
17814;SDS011;9031;50.974;11.330;2024-02-15T14:43:35;1.63;;;0.47;;
17814;SDS011;9031;50.974;11.330;2024-02-15T14:46:02;2.30;;;0.80;;
17814;SDS011;9031;50.974;11.330;2024-02-15T14:48:30;0.93;;;0.60;;
17814;SDS011;9031;50.974;11.330;2024-02-15T14:50:59;0.77;;;0.50;;
17814;SDS011;9031;50.974;11.330;2024-02-15T14:53:25;0.90;;;0.50;;
17814;SDS011;9031;50.974;11.330;2024-02-15T14:55:52;0.70;;;0.60;;
17814;SDS011;9031;50.974;11.330;2024-02-15T14:58:18;0.70;;;0.53;;
17814;SDS011;9031;50.974;11.330;2024-02-15T15:00:45;0.73;;;0.57;;
17814;SDS011;9031;50.974;11.330;2024-02-15T15:03:11;1.17;;;0.80;;